createdAt,value
2023-08-01T00:02:18.069Z,99849.13
2023-08-01T00:05:20.741Z,99853.97
2023-08-01T00:08:23.113Z,99861.19
2023-08-01T00:11:25.717Z,99859.62
2023-08-01T00:14:28.180Z,99854.72
2023-08-01T00:17:30.981Z,99855.06
2023-08-01T00:20:33.431Z,99845.38
2023-08-01T00:23:36.147Z,99844.84
2023-08-01T00:26:38.995Z,99860.66
2023-08-01T00:29:42.453Z,99858.66
2023-08-01T00:32:44.932Z,99862.63
2023-08-01T00:35:54.967Z,99868.66
2023-08-01T00:38:57.374Z,99866.16
2023-08-01T00:42:00.778Z,99859.97
2023-08-01T00:45:03.302Z,99850.31
2023-08-01T00:48:06.617Z,99851.06
2023-08-01T00:51:11.071Z,99844.56
2023-08-01T00:54:13.884Z,99833.03
2023-08-01T00:57:16.376Z,99841.16
2023-08-01T01:00:19.082Z,99824.88
2023-08-01T01:03:22.319Z,99830.41
2023-08-01T01:06:42.377Z,99818.97
2023-08-01T01:09:45.363Z,99810.94
2023-08-01T01:12:48.886Z,99817.91
2023-08-01T01:15:51.984Z,99805.00
2023-08-01T01:18:54.730Z,99816.69
2023-08-01T01:21:59.008Z,99822.22
2023-08-01T01:25:03.516Z,99811.63
2023-08-01T01:28:08.477Z,99808.81
2023-08-01T01:31:11.175Z,99801.00
2023-08-01T01:34:13.980Z,99804.16
2023-08-01T01:37:16.611Z,99804.50
2023-08-01T01:40:19.054Z,99800.38
2023-08-01T01:43:21.687Z,99798.38
2023-08-01T01:46:24.138Z,99809.66
2023-08-01T01:49:27.359Z,99801.50
2023-08-01T01:52:29.880Z,99791.75
2023-08-01T01:55:32.503Z,99796.59
2023-08-01T01:58:35.648Z,99799.75
2023-08-01T02:01:38.309Z,99790.91
2023-08-01T02:04:41.041Z,99774.28
2023-08-01T02:07:43.462Z,99782.00
2023-08-01T02:10:46.142Z,99774.75
2023-08-01T02:13:48.505Z,99776.78
2023-08-01T02:16:51.261Z,99769.16
2023-08-01T02:19:53.717Z,99756.19
2023-08-01T02:22:56.545Z,99764.75
2023-08-01T02:25:58.960Z,99766.72
2023-08-01T02:29:01.728Z,99773.13
2023-08-01T02:32:04.334Z,99764.13
2023-08-01T02:35:07.337Z,99763.72
2023-08-01T02:38:09.840Z,99758.50
2023-08-01T02:41:12.535Z,99766.28
2023-08-01T02:44:15.120Z,99769.84
2023-08-01T02:47:17.809Z,99763.34
2023-08-01T02:50:20.218Z,99772.91
2023-08-01T02:53:23.019Z,99766.22
2023-08-01T02:56:25.490Z,99759.63
2023-08-01T02:59:28.180Z,99759.94
2023-08-01T03:02:30.591Z,99761.78
2023-08-01T03:05:33.516Z,99748.87
2023-08-01T03:08:35.933Z,99759.25
2023-08-01T03:11:39.028Z,99759.50
2023-08-01T03:14:44.418Z,99761.22
2023-08-01T03:17:47.145Z,99752.59
2023-08-01T03:20:49.585Z,99764.47
2023-08-01T03:23:52.266Z,99755.00
2023-08-01T03:26:54.651Z,99759.44
2023-08-01T03:29:57.314Z,99763.00
2023-08-01T03:33:00.522Z,99750.63
2023-08-01T03:36:05.051Z,99745.88
2023-08-01T03:39:07.410Z,99729.03
2023-08-01T03:42:10.080Z,99742.22
2023-08-01T03:45:12.546Z,99743.13
2023-08-01T03:48:15.196Z,99745.97
2023-08-01T03:51:19.003Z,99742.00
2023-08-01T03:54:21.646Z,99745.62
2023-08-01T03:57:24.166Z,99740.41
2023-08-01T04:00:27.228Z,99749.06
2023-08-01T04:03:29.990Z,99730.16
2023-08-01T04:06:32.431Z,99742.97
2023-08-01T04:09:35.255Z,99738.97
2023-08-01T04:12:37.581Z,99742.91
2023-08-01T04:15:40.280Z,99731.78
2023-08-01T04:18:42.683Z,99731.31
2023-08-01T04:21:45.363Z,99736.63
2023-08-01T04:24:47.715Z,99737.50
2023-08-01T04:27:50.394Z,99729.72
2023-08-01T04:30:53.721Z,99733.87
2023-08-01T04:33:56.557Z,99728.97
2023-08-01T04:36:58.961Z,99734.59
2023-08-01T04:40:01.648Z,99732.22
2023-08-01T04:43:04.232Z,99732.66
2023-08-01T04:46:06.919Z,99733.09
2023-08-01T04:49:09.294Z,99730.25
2023-08-01T04:52:11.968Z,99725.06
2023-08-01T04:55:14.622Z,99734.16
2023-08-01T04:58:17.359Z,99713.59
2023-08-01T05:01:19.714Z,99721.09
2023-08-01T05:04:22.566Z,99725.69
2023-08-01T05:07:24.944Z,99708.66
2023-08-01T05:10:27.673Z,99721.47
2023-08-01T05:13:30.187Z,99724.41
2023-08-01T05:16:32.883Z,99715.56
2023-08-01T05:19:35.379Z,99710.28
2023-08-01T05:22:37.992Z,99723.69
2023-08-01T05:25:40.426Z,99712.41
2023-08-01T05:28:43.155Z,99714.59
2023-08-01T05:31:45.614Z,99712.19
2023-08-01T05:34:48.354Z,99715.25
2023-08-01T05:37:50.724Z,99716.91
2023-08-01T05:40:53.611Z,99711.84
2023-08-01T05:43:56.093Z,99718.50
2023-08-01T05:46:58.736Z,99724.69
2023-08-01T05:50:01.106Z,99727.81
2023-08-01T05:53:03.764Z,99720.22
2023-08-01T05:56:06.424Z,99703.66
2023-08-01T05:59:09.186Z,99710.22
2023-08-01T06:02:11.619Z,99716.78
2023-08-01T06:05:14.630Z,99717.91
2023-08-01T06:08:17.155Z,99713.97
2023-08-01T06:11:20.033Z,99723.19
2023-08-01T06:14:22.557Z,99717.56
2023-08-01T06:17:25.317Z,99720.88
2023-08-01T06:20:30.786Z,99723.38
2023-08-01T06:23:33.720Z,99717.28
2023-08-01T06:26:36.416Z,99707.97
2023-08-01T06:29:41.260Z,99708.81
2023-08-01T06:32:43.740Z,99709.56
2023-08-01T06:35:46.505Z,99707.47
2023-08-01T06:38:49.103Z,99707.84
2023-08-01T06:41:51.913Z,99708.75
2023-08-01T06:44:54.447Z,99698.22
2023-08-01T06:47:57.230Z,99698.22
2023-08-01T06:50:59.698Z,99698.09
2023-08-01T06:54:02.386Z,99691.03
2023-08-01T06:57:05.517Z,99698.94
2023-08-01T07:00:09.176Z,99691.94
2023-08-01T07:03:11.668Z,99688.87
2023-08-01T07:06:14.466Z,99688.63
2023-08-01T07:09:16.958Z,99678.94
2023-08-01T07:12:19.714Z,99688.25
2023-08-01T07:15:22.384Z,99678.38
2023-08-01T07:18:25.104Z,99681.81
2023-08-01T07:21:27.578Z,99680.47
2023-08-01T07:24:30.221Z,99676.16
2023-08-01T07:27:32.792Z,99673.75
2023-08-01T07:30:35.492Z,99676.56
2023-08-01T07:33:38.079Z,99678.06
2023-08-01T07:36:41.087Z,99681.78
2023-08-01T07:39:43.721Z,99679.41
2023-08-01T07:42:47.450Z,99662.59
2023-08-01T07:45:51.805Z,99672.63
2023-08-01T07:48:55.394Z,99665.72
2023-08-01T07:51:57.900Z,99656.72
2023-08-01T07:55:00.792Z,99659.94
2023-08-01T07:58:03.484Z,99663.47
2023-08-01T08:01:07.423Z,99643.19
2023-08-01T08:04:10.179Z,99639.00
2023-08-01T08:07:12.778Z,99644.28
2023-08-01T08:10:16.345Z,99640.13
2023-08-01T08:13:19.587Z,99637.16
2023-08-01T08:16:22.435Z,99639.72
2023-08-01T08:19:26.424Z,99633.72
2023-08-01T08:22:29.102Z,99634.66
2023-08-01T08:25:31.557Z,99635.53
2023-08-01T08:28:35.200Z,99635.69
2023-08-01T08:31:37.857Z,99636.66
2023-08-01T08:34:40.744Z,99632.56
2023-08-01T08:37:43.196Z,99625.00
2023-08-01T08:41:00.227Z,99627.41
2023-08-01T08:44:06.218Z,99617.56
2023-08-01T08:47:11.570Z,99605.75
2023-08-01T08:50:15.026Z,99605.50
2023-08-01T08:53:18.924Z,99608.47
2023-08-01T08:56:21.599Z,99597.94
2023-08-01T08:59:26.487Z,99609.75
2023-08-01T09:02:29.500Z,99611.31
2023-08-01T09:05:40.963Z,99607.34
2023-08-01T09:08:52.349Z,99595.59
2023-08-01T09:11:57.565Z,99585.62
2023-08-01T09:15:00.435Z,99575.94
2023-08-01T09:18:07.874Z,99575.19
2023-08-01T09:21:10.423Z,99571.22
2023-08-01T09:24:18.255Z,99577.53
2023-08-01T09:27:23.310Z,99547.72
2023-08-01T09:30:26.116Z,99562.62
2023-08-01T09:33:39.766Z,99555.09
2023-08-01T09:36:42.825Z,99543.31
2023-08-01T09:39:47.811Z,99542.81
2023-08-01T09:42:50.657Z,99546.63
2023-08-01T09:45:54.692Z,99534.97
2023-08-01T09:49:11.186Z,99539.47
2023-08-01T09:52:13.650Z,99540.56
2023-08-01T09:55:16.318Z,99539.06
2023-08-01T09:58:22.246Z,99524.88
2023-08-01T10:01:26.030Z,99534.56
2023-08-01T10:04:31.553Z,99526.97
2023-08-01T10:07:35.579Z,99514.75
2023-08-01T10:10:38.841Z,99519.06
2023-08-01T10:13:43.821Z,99501.56
2023-08-01T10:16:47.192Z,99479.81
2023-08-01T10:19:52.247Z,99500.53
2023-08-01T10:22:55.405Z,99489.25
2023-08-01T10:26:00.687Z,99499.94
2023-08-01T10:29:03.747Z,99485.56
2023-08-01T10:32:08.746Z,99490.63
2023-08-01T10:35:11.641Z,99476.16
2023-08-01T10:38:14.176Z,99470.25
2023-08-01T10:41:21.185Z,99465.41
2023-08-01T10:44:23.618Z,99471.53
2023-08-01T10:47:28.268Z,99471.22
2023-08-01T10:50:30.773Z,99465.25
2023-08-01T10:53:42.391Z,99457.03
2023-08-01T10:56:47.577Z,99452.13
2023-08-01T10:59:50.405Z,99447.09
2023-08-01T11:02:53.206Z,99441.69
2023-08-01T11:05:59.371Z,99437.13
2023-08-01T11:09:01.920Z,99430.47
2023-08-01T11:12:05.260Z,99420.91
2023-08-01T11:15:10.320Z,99412.81
2023-08-01T11:18:13.182Z,99410.78
2023-08-01T11:21:26.611Z,99428.38
2023-08-01T11:24:29.358Z,99414.34
2023-08-01T11:27:31.921Z,99411.84
2023-08-01T11:30:35.006Z,99400.81
2023-08-01T11:33:37.383Z,99397.19
2023-08-01T11:36:40.768Z,99395.00
2023-08-01T11:39:43.696Z,99392.72
2023-08-01T11:42:53.679Z,99393.81
2023-08-01T11:45:57.815Z,99374.00
2023-08-01T11:49:03.994Z,99365.12
2023-08-01T11:52:08.544Z,99361.69
2023-08-01T11:55:20.694Z,99356.84
2023-08-01T11:58:33.941Z,99356.44
2023-08-01T12:01:45.807Z,99348.03
2023-08-01T12:04:48.773Z,99351.00
2023-08-01T12:07:51.612Z,99342.78
2023-08-01T12:10:54.391Z,99337.37
2023-08-01T12:14:13.011Z,99336.13
2023-08-01T12:17:15.771Z,99318.91
2023-08-01T12:20:18.258Z,99324.03
2023-08-01T12:23:21.470Z,99317.72
2023-08-01T12:26:24.194Z,99305.72
2023-08-01T12:29:26.872Z,99296.78
2023-08-01T12:32:29.234Z,99294.25
2023-08-01T12:35:32.003Z,99300.91
2023-08-01T12:38:34.409Z,99296.44
2023-08-01T12:41:37.985Z,99286.69
2023-08-01T12:44:40.500Z,99274.78
2023-08-01T12:47:43.576Z,99269.16
2023-08-01T12:50:46.827Z,99275.66
2023-08-01T12:53:49.638Z,99276.28
2023-08-01T12:56:52.445Z,99266.88
2023-08-01T12:59:55.354Z,99265.84
2023-08-01T13:02:57.986Z,99262.41
2023-08-01T13:06:00.749Z,99260.47
2023-08-01T13:09:03.985Z,99253.78
2023-08-01T13:12:07.458Z,99245.53
2023-08-01T13:15:17.402Z,99245.78
2023-08-01T13:18:21.112Z,99254.63
2023-08-01T13:21:24.138Z,99241.03
2023-08-01T13:24:26.889Z,99242.97
2023-08-01T13:27:29.262Z,99255.53
2023-08-01T13:30:32.225Z,99240.19
2023-08-01T13:33:34.773Z,99249.56
2023-08-01T13:36:37.665Z,99234.38
2023-08-01T13:39:40.549Z,99240.63
2023-08-01T13:42:43.250Z,99231.44
2023-08-01T13:45:45.947Z,99215.19
2023-08-01T13:48:51.222Z,99211.62
2023-08-01T13:51:53.752Z,99210.38
2023-08-01T13:54:56.690Z,99217.59
2023-08-01T13:57:59.179Z,99214.13
2023-08-01T14:01:06.200Z,99209.66
2023-08-01T14:04:09.075Z,99209.91
2023-08-01T14:07:11.717Z,99213.81
2023-08-01T14:10:15.923Z,99207.03
2023-08-01T14:13:18.634Z,99206.94
2023-08-01T14:16:21.429Z,99208.09
2023-08-01T14:19:23.877Z,99200.59
2023-08-01T14:22:26.585Z,99194.13
2023-08-01T14:25:30.696Z,99189.41
2023-08-01T14:28:34.881Z,99179.25
2023-08-01T14:31:37.332Z,99178.69
2023-08-01T14:34:40.311Z,99159.78
2023-08-01T14:37:46.369Z,99158.19
2023-08-01T14:41:06.074Z,99159.69
2023-08-01T14:44:11.579Z,99155.31
2023-08-01T14:47:15.072Z,99158.31
2023-08-01T14:50:17.539Z,99151.31
2023-08-01T14:53:20.341Z,99148.09
2023-08-01T14:56:23.270Z,99144.44
2023-08-01T14:59:26.018Z,99136.47
2023-08-01T15:02:28.558Z,99131.53
2023-08-01T15:05:31.309Z,99127.62
2023-08-01T15:08:34.222Z,99148.41
2023-08-01T15:11:37.025Z,99131.06
2023-08-01T15:14:39.404Z,99142.41
2023-08-01T15:17:42.231Z,99132.31
2023-08-01T15:20:44.832Z,99148.78
2023-08-01T15:23:47.599Z,99128.88
2023-08-01T15:26:49.979Z,99132.34
2023-08-01T15:29:52.724Z,99132.53
2023-08-01T15:32:55.120Z,99127.06
2023-08-01T15:36:03.112Z,99126.34
2023-08-01T15:39:05.805Z,99122.13
2023-08-01T15:42:08.543Z,99128.97
2023-08-01T15:45:11.018Z,99139.50
2023-08-01T15:48:13.686Z,99150.66
2023-08-01T15:51:16.076Z,99166.03
2023-08-01T15:54:18.757Z,99176.91
2023-08-01T15:57:21.161Z,99174.34
2023-08-01T16:00:24.513Z,99175.66
2023-08-01T16:03:28.284Z,99193.13
2023-08-01T16:06:30.923Z,99210.56
2023-08-01T16:09:33.756Z,99207.59
2023-08-01T16:12:36.174Z,99230.66
2023-08-01T16:15:40.473Z,99247.13
2023-08-01T16:18:42.878Z,99257.75
2023-08-01T16:21:45.716Z,99258.88
2023-08-01T16:24:48.123Z,99270.28
2023-08-01T16:27:52.118Z,99268.84
2023-08-01T16:30:54.612Z,99281.03
2023-08-01T16:33:57.254Z,99291.53
2023-08-01T16:36:59.751Z,99315.44
2023-08-01T16:40:02.453Z,99312.63
2023-08-01T16:43:06.114Z,99317.09
2023-08-01T16:46:08.854Z,99321.47
2023-08-01T16:49:22.081Z,99322.25
2023-08-01T16:52:26.446Z,99323.50
2023-08-01T16:55:28.866Z,99334.34
2023-08-01T16:58:31.578Z,99329.41
2023-08-01T17:01:34.022Z,99323.75
2023-08-01T17:04:39.910Z,99327.03
2023-08-01T17:07:42.279Z,99322.97
2023-08-01T17:10:44.947Z,99316.34
2023-08-01T17:13:47.707Z,99317.25
2023-08-01T17:16:50.634Z,99321.69
2023-08-01T17:19:53.103Z,99323.78
2023-08-01T17:22:55.842Z,99338.97
2023-08-01T17:25:58.502Z,99349.62
2023-08-01T17:29:01.323Z,99348.84
2023-08-01T17:32:04.127Z,99341.50
2023-08-01T17:35:07.719Z,99345.56
2023-08-01T17:38:10.381Z,99344.22
2023-08-01T17:41:24.801Z,99343.09
2023-08-01T17:44:35.152Z,99358.22
2023-08-01T17:47:43.159Z,99367.25
2023-08-01T17:50:45.490Z,99360.69
2023-08-01T17:53:48.461Z,99363.81
2023-08-01T17:56:50.988Z,99349.16
2023-08-01T17:59:53.707Z,99348.13
2023-08-01T18:02:56.040Z,99341.69
2023-08-01T18:06:10.482Z,99355.03
2023-08-01T18:09:13.390Z,99355.31
2023-08-01T18:12:16.123Z,99364.19
2023-08-01T18:15:18.676Z,99364.59
2023-08-01T18:18:21.446Z,99377.81
2023-08-01T18:21:24.309Z,99384.56
2023-08-01T18:24:26.913Z,99383.28
2023-08-01T18:27:29.273Z,99391.44
2023-08-01T18:30:32.470Z,99392.03
2023-08-01T18:33:35.041Z,99376.06
2023-08-01T18:36:37.835Z,99380.62
2023-08-01T18:39:40.203Z,99397.13
2023-08-01T18:42:42.853Z,99430.06
2023-08-01T18:45:54.006Z,99430.91
2023-08-01T18:48:56.898Z,99443.19
2023-08-01T18:51:59.285Z,99451.87
2023-08-01T18:55:02.040Z,99453.97
2023-08-01T18:58:05.773Z,99458.38
2023-08-01T19:01:14.191Z,99458.25
2023-08-01T19:04:16.573Z,99470.59
2023-08-01T19:07:19.234Z,99479.88
2023-08-01T19:10:21.649Z,99499.41
2023-08-01T19:13:24.447Z,99501.81
2023-08-01T19:16:26.904Z,99491.75
2023-08-01T19:19:29.577Z,99477.75
2023-08-01T19:22:32.223Z,99450.34
2023-08-01T19:25:34.843Z,99447.97
2023-08-01T19:28:37.812Z,99435.09
2023-08-01T19:31:40.601Z,99428.63
2023-08-01T19:34:50.765Z,99432.00
2023-08-01T19:37:53.402Z,99433.06
2023-08-01T19:41:01.883Z,99420.00
2023-08-01T19:44:04.785Z,99430.13
2023-08-01T19:47:07.225Z,99431.47
2023-08-01T19:50:10.005Z,99425.31
2023-08-01T19:53:12.596Z,99423.00
2023-08-01T19:56:15.221Z,99420.47
2023-08-01T19:59:17.747Z,99421.75
2023-08-01T20:02:20.465Z,99423.47
2023-08-01T20:05:23.574Z,99440.06
2023-08-01T20:08:26.697Z,99431.88
2023-08-01T20:11:29.412Z,99442.75
2023-08-01T20:14:31.812Z,99433.16
2023-08-01T20:17:35.188Z,99415.56
2023-08-01T20:20:37.695Z,99405.97
2023-08-01T20:23:40.473Z,99404.97
2023-08-01T20:26:45.672Z,99391.22
2023-08-01T20:29:48.308Z,99383.22
2023-08-01T20:32:50.773Z,99363.75
2023-08-01T20:35:58.663Z,99358.16
2023-08-01T20:42:04.954Z,99366.28
2023-08-01T20:45:08.115Z,99351.13
2023-08-01T20:48:12.729Z,99357.50
2023-08-01T20:51:15.561Z,99352.63
2023-08-01T20:54:18.340Z,99351.81
2023-08-01T20:57:20.855Z,99343.31
2023-08-01T21:00:23.653Z,99339.78
2023-08-01T21:03:27.021Z,99360.66
2023-08-01T21:06:29.761Z,99385.06
2023-08-01T21:09:32.895Z,99397.84
2023-08-01T21:12:36.149Z,99425.38
2023-08-01T21:15:38.601Z,99409.91
2023-08-01T21:18:41.518Z,99397.00
2023-08-01T21:21:43.880Z,99407.66
2023-08-01T21:24:46.643Z,99411.94
2023-08-01T21:27:49.061Z,99459.06
2023-08-01T21:30:51.921Z,99466.22
2023-08-01T21:33:54.425Z,99453.72
2023-08-01T21:36:57.105Z,99424.41
2023-08-01T21:39:59.483Z,99425.50
2023-08-01T21:43:02.127Z,99423.03
2023-08-01T21:46:04.544Z,99446.94
2023-08-01T21:49:07.223Z,99475.47
2023-08-01T21:52:09.603Z,99498.69
2023-08-01T21:55:12.335Z,99512.78
2023-08-01T21:58:15.957Z,99523.28
2023-08-01T22:01:18.898Z,99543.00
2023-08-01T22:04:21.647Z,99557.81
2023-08-01T22:07:24.506Z,99559.87
2023-08-01T22:10:27.797Z,99543.50
2023-08-01T22:13:30.267Z,99529.91
2023-08-01T22:16:32.892Z,99513.50
2023-08-01T22:19:35.357Z,99513.72
2023-08-01T22:22:38.462Z,99517.81
2023-08-01T22:25:40.827Z,99489.72
2023-08-01T22:28:43.537Z,99474.44
2023-08-01T22:31:48.349Z,99498.03
2023-08-01T22:34:51.147Z,99482.09
2023-08-01T22:37:53.501Z,99481.50
2023-08-01T22:40:56.181Z,99473.47
2023-08-01T22:43:59.152Z,99474.44
2023-08-01T22:47:02.425Z,99450.44
2023-08-01T22:50:07.191Z,99458.97
2023-08-01T22:53:10.146Z,99459.47
2023-08-01T22:56:12.730Z,99462.66
2023-08-01T22:59:15.418Z,99473.19
2023-08-01T23:02:18.307Z,99471.12
2023-08-01T23:05:21.577Z,99464.19
2023-08-01T23:08:24.494Z,99471.03
2023-08-01T23:11:27.193Z,99457.69
2023-08-01T23:14:29.630Z,99460.37
2023-08-01T23:17:34.145Z,99461.34
2023-08-01T23:20:36.547Z,99474.72
2023-08-01T23:23:39.144Z,99481.13
2023-08-01T23:26:41.639Z,99482.78
2023-08-01T23:29:44.474Z,99484.81
2023-08-01T23:32:46.941Z,99486.06
2023-08-01T23:35:49.787Z,99476.03
2023-08-01T23:38:52.171Z,99469.31
2023-08-01T23:41:55.450Z,99482.91
2023-08-01T23:44:58.078Z,99494.53
2023-08-01T23:48:00.879Z,99515.78
2023-08-01T23:51:03.412Z,99522.25
2023-08-01T23:54:06.048Z,99502.91
2023-08-01T23:57:08.870Z,99511.44
